Time;durP1;ratioP1;P1;durP2;ratioP2;P2;SDS_P1;SDS_P2;PMS_P1;PMS_P2;Temp;Humidity;BMP_temperature;BMP_pressure;BME280_temperature;BME280_humidity;BME280_pressure;Samples;Min_cycle;Max_cycle;Signal;HPM_P1;HPM_P2
2023/10/02 00:00:41;;;;;;;0.50;0.40;;;17.70;99.90;;;;;;5072404;28;20479;-81
2023/10/02 00:03:09;;;;;;;0.50;0.30;;;17.70;99.90;;;;;;5056134;28;20437;-81
2023/10/02 00:05:51;;;;;;;0.50;0.40;;;17.70;99.90;;;;;;5072030;28;20468;-81
2023/10/02 00:11:35;;;;;;;0.50;0.40;;;17.60;99.90;;;;;;5077333;28;20441;-82
2023/10/02 00:14:18;;;;;;;0.50;0.40;;;17.60;99.90;;;;;;5073314;28;20462;-82
2023/10/02 00:16:58;;;;;;;0.50;0.40;;;17.60;99.90;;;;;;5073965;28;20501;-82
2023/10/02 00:19:29;;;;;;;0.50;0.40;;;17.60;99.90;;;;;;5074055;28;20480;-82
2023/10/02 00:22:04;;;;;;;0.50;0.40;;;17.60;99.90;;;;;;5074405;28;20453;-82
2023/10/02 00:24:35;;;;;;;0.50;0.40;;;17.50;99.90;;;;;;5074146;28;20437;-82
2023/10/02 00:27:03;;;;;;;0.50;0.40;;;17.50;99.90;;;;;;5073864;28;20523;-82
2023/10/02 00:29:31;;;;;;;0.50;0.30;;;17.40;99.90;;;;;;5073712;28;20440;-82
2023/10/02 00:31:58;;;;;;;0.67;0.67;;;17.40;99.90;;;;;;5074069;28;20441;-82
2023/10/02 00:34:36;;;;;;;0.50;0.30;;;17.40;99.90;;;;;;5073525;28;20441;-81
2023/10/02 00:37:08;;;;;;;0.50;0.40;;;17.50;99.90;;;;;;5073263;28;20557;-82
2023/10/02 00:39:37;;;;;;;0.50;0.30;;;17.40;99.90;;;;;;5073596;28;20849;-82
2023/10/02 00:44:52;;;;;;;0.50;0.40;;;17.40;99.90;;;;;;5073593;28;20815;-82
2023/10/02 00:50:17;;;;;;;0.50;0.30;;;17.40;99.90;;;;;;5092207;28;20919;-82
2023/10/02 00:52:48;;;;;;;0.50;0.40;;;17.30;99.90;;;;;;5091975;28;20499;-81
2023/10/02 00:55:16;;;;;;;0.50;0.30;;;17.30;99.90;;;;;;5083906;28;20525;-81
2023/10/02 00:57:45;;;;;;;0.50;0.30;;;17.40;99.90;;;;;;5091917;28;20438;-81
2023/10/02 01:00:20;;;;;;;0.50;0.40;;;17.30;99.90;;;;;;5091670;28;20446;-81
2023/10/02 01:02:49;;;;;;;0.60;0.40;;;17.30;99.90;;;;;;5091391;28;20451;-81
2023/10/02 01:05:21;;;;;;;0.50;0.40;;;17.20;99.90;;;;;;5091679;28;20443;-82
2023/10/02 01:07:53;;;;;;;0.60;0.50;;;17.30;99.90;;;;;;5091362;28;21000;-81
2023/10/02 01:10:23;;;;;;;0.50;0.50;;;17.30;99.90;;;;;;5084588;28;20440;-81
2023/10/02 01:12:50;;;;;;;0.50;0.30;;;17.30;99.90;;;;;;5091608;28;20870;-81
2023/10/02 01:15:26;;;;;;;0.50;0.30;;;17.30;99.90;;;;;;5091065;28;20492;-81
2023/10/02 01:17:54;;;;;;;0.70;0.60;;;17.30;99.90;;;;;;5090384;28;20445;-82
2023/10/02 01:20:32;;;;;;;1.90;1.80;;;17.30;99.90;;;;;;5090918;28;20819;-81
2023/10/02 01:23:11;;;;;;;0.50;0.30;;;17.30;99.90;;;;;;5090852;28;20509;-81
2023/10/02 01:25:42;;;;;;;0.50;0.40;;;17.40;99.90;;;;;;5089573;28;20458;-80
2023/10/02 01:28:10;;;;;;;0.50;0.40;;;17.40;99.90;;;;;;5089017;28;20444;-81
2023/10/02 01:30:37;;;;;;;0.50;0.40;;;17.30;99.90;;;;;;5089120;28;20464;-80
2023/10/02 01:33:17;;;;;;;0.50;0.40;;;17.30;99.90;;;;;;5089569;28;20863;-81
2023/10/02 01:35:48;;;;;;;0.50;0.40;;;17.30;99.90;;;;;;5088337;28;20834;-79
2023/10/02 01:38:18;;;;;;;0.70;0.70;;;17.30;99.90;;;;;;5088549;28;20438;-81
2023/10/02 01:40:53;;;;;;;0.50;0.30;;;17.30;99.90;;;;;;5088800;28;20796;-81
2023/10/02 01:43:24;;;;;;;0.50;0.50;;;17.30;99.90;;;;;;5088480;28;20449;-80
2023/10/02 01:45:56;;;;;;;0.50;0.30;;;17.40;99.90;;;;;;5088382;28;20454;-81
2023/10/02 01:48:37;;;;;;;0.50;0.40;;;17.40;99.90;;;;;;5080474;28;20509;-81
2023/10/02 01:51:20;;;;;;;0.50;0.30;;;17.40;99.90;;;;;;5088381;28;20816;-81
2023/10/02 01:53:48;;;;;;;0.50;0.40;;;17.40;99.90;;;;;;5088644;28;20450;-81
2023/10/02 01:56:17;;;;;;;0.50;0.30;;;17.40;99.90;;;;;;5087826;28;20965;-80
2023/10/02 01:58:47;;;;;;;0.50;0.30;;;17.40;99.90;;;;;;5088031;28;20452;-80
2023/10/02 02:01:14;;;;;;;0.50;0.30;;;17.40;99.90;;;;;;5076882;28;20450;-81
2023/10/02 02:03:46;;;;;;;0.50;0.40;;;17.40;99.90;;;;;;5074577;28;20822;-81
2023/10/02 02:06:16;;;;;;;0.57;0.53;;;17.40;99.90;;;;;;5074442;28;20474;-81
2023/10/02 02:08:43;;;;;;;0.50;0.30;;;17.40;99.90;;;;;;5074574;28;20482;-81
2023/10/02 02:11:18;;;;;;;0.50;0.40;;;17.40;99.90;;;;;;5074462;28;20474;-81
2023/10/02 02:13:47;;;;;;;0.50;0.40;;;17.40;99.90;;;;;;5074755;28;20450;-80
2023/10/02 02:16:16;;;;;;;0.50;0.30;;;17.40;99.90;;;;;;5073722;28;20479;-80
2023/10/02 02:18:45;;;;;;;1.07;1.07;;;17.40;99.90;;;;;;5074051;28;20811;-81
2023/10/02 02:21:16;;;;;;;0.63;0.60;;;17.40;99.90;;;;;;5073611;28;20454;-81
2023/10/02 02:23:42;;;;;;;0.50;0.30;;;17.40;99.90;;;;;;5073960;28;21002;-81
2023/10/02 02:26:09;;;;;;;0.50;0.40;;;17.40;99.90;;;;;;5073297;28;21006;-80
2023/10/02 02:28:43;;;;;;;0.53;0.50;;;17.30;99.90;;;;;;5073982;28;20481;-81
2023/10/02 02:31:29;;;;;;;0.50;0.40;;;17.30;99.90;;;;;;5073420;28;20457;-80
2023/10/02 02:33:57;;;;;;;0.50;0.30;;;17.30;99.90;;;;;;5073719;28;20932;-80
2023/10/02 02:36:25;;;;;;;1.43;1.33;;;17.40;99.90;;;;;;5065984;28;20461;-80
2023/10/02 02:39:08;;;;;;;0.50;0.30;;;17.40;99.90;;;;;;5073962;28;20440;-81
2023/10/02 02:41:35;;;;;;;2.73;2.53;;;17.40;99.90;;;;;;5073539;28;20446;-81
2023/10/02 02:44:04;;;;;;;1.90;1.80;;;17.40;99.90;;;;;;5073466;28;20450;-81
2023/10/02 02:46:32;;;;;;;0.50;0.30;;;17.40;99.90;;;;;;5073209;28;20972;-80
2023/10/02 02:49:00;;;;;;;0.50;0.40;;;17.40;99.90;;;;;;5072784;28;20478;-81
2023/10/02 02:51:27;;;;;;;0.50;0.30;;;17.30;99.90;;;;;;5073542;28;20447;-80
2023/10/02 02:53:55;;;;;;;0.50;0.30;;;17.30;99.90;;;;;;5073587;28;20438;-80
2023/10/02 02:56:23;;;;;;;0.50;0.40;;;17.30;99.90;;;;;;5072863;28;20458;-80
2023/10/02 02:58:52;;;;;;;0.50;0.30;;;17.30;99.90;;;;;;5072997;28;20450;-80
2023/10/02 03:01:22;;;;;;;0.50;0.30;;;17.30;99.90;;;;;;5072877;28;20534;-80
2023/10/02 03:03:51;;;;;;;0.67;0.63;;;17.30;99.90;;;;;;5073197;28;20443;-81
2023/10/02 03:06:22;;;;;;;0.50;0.40;;;17.30;99.90;;;;;;5072664;28;21066;-80
2023/10/02 03:08:51;;;;;;;0.50;0.40;;;17.30;99.90;;;;;;5072841;28;21039;-80
2023/10/02 03:11:19;;;;;;;0.50;0.30;;;17.30;99.90;;;;;;5072593;28;20443;-81
2023/10/02 03:13:47;;;;;;;0.50;0.30;;;17.30;99.90;;;;;;5072320;28;20497;-81
2023/10/02 03:16:17;;;;;;;0.50;0.30;;;17.30;99.90;;;;;;5072624;28;20459;-81
2023/10/02 03:18:44;;;;;;;0.50;0.30;;;17.30;99.90;;;;;;5072531;28;20443;-80
2023/10/02 03:21:21;;;;;;;0.50;0.30;;;17.30;99.90;;;;;;5072626;28;20446;-80
2023/10/02 03:23:49;;;;;;;0.50;0.40;;;17.30;99.90;;;;;;5073514;28;20504;-80
2023/10/02 03:26:37;;;;;;;0.50;0.37;;;17.30;99.90;;;;;;5072316;28;20459;-80
2023/10/02 03:29:05;;;;;;;0.50;0.37;;;17.30;99.90;;;;;;5072586;28;20476;-80
2023/10/02 03:31:37;;;;;;;0.50;0.40;;;17.30;99.90;;;;;;5073224;28;20452;-80
2023/10/02 03:34:25;;;;;;;0.50;0.40;;;17.30;99.90;;;;;;5072182;28;20564;-79
2023/10/02 03:36:54;;;;;;;0.50;0.40;;;17.30;99.90;;;;;;5072286;28;20496;-79
2023/10/02 03:39:51;;;;;;;0.50;0.40;;;17.30;99.90;;;;;;5072539;28;20970;-81
2023/10/02 03:42:13;;;;;;;0.50;0.40;;;17.20;99.90;;;;;;5072243;28;20435;-79
2023/10/02 03:44:42;;;;;;;0.50;0.40;;;17.20;99.90;;;;;;5072489;28;20441;-80
2023/10/02 03:47:12;;;;;;;0.50;0.37;;;17.20;99.90;;;;;;5072494;28;20833;-80
2023/10/02 03:49:42;;;;;;;0.50;0.40;;;17.20;99.90;;;;;;5072570;28;20484;-80
2023/10/02 03:52:13;;;;;;;0.50;0.40;;;17.20;99.90;;;;;;5071917;28;20447;-79
2023/10/02 03:54:43;;;;;;;0.50;0.40;;;17.20;99.90;;;;;;5072932;28;20450;-80
2023/10/02 03:57:36;;;;;;;2.00;1.90;;;17.20;99.90;;;;;;5071836;28;20519;-80
2023/10/02 04:00:00;;;;;;;0.50;0.30;;;17.10;99.90;;;;;;5072021;28;20431;-80
2023/10/02 04:02:30;;;;;;;0.50;0.40;;;17.10;99.90;;;;;;5072123;28;20497;-80
2023/10/02 04:04:57;;;;;;;0.87;0.70;;;17.10;99.90;;;;;;5072138;28;20479;-80
2023/10/02 04:07:27;;;;;;;0.50;0.40;;;17.10;99.90;;;;;;5072089;28;20912;-80
2023/10/02 04:09:55;;;;;;;0.50;0.30;;;17.10;99.90;;;;;;5072224;28;20471;-80
2023/10/02 04:12:22;;;;;;;0.50;0.30;;;17.20;99.90;;;;;;5072097;28;20469;-80
2023/10/02 04:14:49;;;;;;;0.50;0.30;;;17.20;99.90;;;;;;5071920;28;20473;-80
2023/10/02 04:17:20;;;;;;;0.50;0.30;;;17.20;99.90;;;;;;5072615;28;20477;-81
2023/10/02 04:19:49;;;;;;;0.50;0.40;;;17.20;99.90;;;;;;5072348;28;20472;-81
2023/10/02 04:22:23;;;;;;;1.03;0.93;;;17.30;99.90;;;;;;5072598;28;20779;-80
2023/10/02 04:24:51;;;;;;;0.50;0.30;;;17.30;99.90;;;;;;5072441;28;20958;-80
2023/10/02 04:27:25;;;;;;;0.50;0.40;;;17.30;99.90;;;;;;5072106;28;20570;-80
2023/10/02 04:32:33;;;;;;;0.50;0.30;;;17.40;99.90;;;;;;5076044;28;20850;-81
2023/10/02 04:34:59;;;;;;;0.50;0.40;;;17.30;99.90;;;;;;5074257;28;20438;-80
2023/10/02 04:37:26;;;;;;;3.53;0.80;;;17.40;99.90;;;;;;5074128;28;20460;-81
2023/10/02 04:40:13;;;;;;;2.00;1.90;;;17.30;99.90;;;;;;5074747;28;20485;-81
2023/10/02 04:43:09;;;;;;;0.50;0.40;;;17.40;99.90;;;;;;5077962;28;20537;-81
2023/10/02 04:45:36;;;;;;;0.50;0.40;;;17.40;99.90;;;;;;5069878;28;20465;-81
2023/10/02 04:48:09;;;;;;;0.50;0.30;;;17.30;99.90;;;;;;5078177;28;20448;-81
2023/10/02 04:50:39;;;;;;;0.50;0.40;;;17.30;99.90;;;;;;5070593;28;20474;-81
2023/10/02 04:53:19;;;;;;;0.50;0.40;;;17.30;99.90;;;;;;5078626;28;20453;-80
2023/10/02 04:55:48;;;;;;;0.50;0.30;;;17.30;99.90;;;;;;5069786;28;20451;-81
2023/10/02 04:58:19;;;;;;;1.30;1.20;;;17.30;99.90;;;;;;5074235;28;20941;-81
2023/10/02 05:03:28;;;;;;;0.50;0.40;;;17.20;99.90;;;;;;5073571;28;20442;-81
2023/10/02 05:08:33;;;;;;;1.87;1.07;;;17.20;99.90;;;;;;5028551;28;20469;-82
2023/10/02 05:11:06;;;;;;;0.50;0.40;;;17.20;99.90;;;;;;5036089;28;20480;-82
2023/10/02 05:13:53;;;;;;;0.50;0.40;;;17.20;99.90;;;;;;5036027;28;20444;-82
2023/10/02 05:16:27;;;;;;;1.10;0.40;;;17.20;99.90;;;;;;5034972;28;20960;-82
2023/10/02 05:18:54;;;;;;;0.50;0.40;;;17.20;99.90;;;;;;5026848;28;20464;-82
2023/10/02 05:21:35;;;;;;;0.60;0.40;;;17.20;99.90;;;;;;5027147;28;20440;-81
2023/10/02 05:24:03;;;;;;;0.50;0.40;;;17.10;99.90;;;;;;5035820;28;20452;-82
2023/10/02 05:26:34;;;;;;;0.50;0.40;;;17.10;99.90;;;;;;5024606;28;20464;-82
2023/10/02 05:29:00;;;;;;;0.80;0.80;;;17.10;99.90;;;;;;5023262;28;20442;-81
2023/10/02 05:31:28;;;;;;;0.50;0.40;;;17.00;99.90;;;;;;5016509;28;20481;-82
2023/10/02 05:33:57;;;;;;;0.50;0.40;;;17.00;99.90;;;;;;5017072;28;20438;-80
2023/10/02 05:36:28;;;;;;;0.50;0.40;;;17.00;99.90;;;;;;5027802;28;20516;-82
2023/10/02 05:39:28;;;;;;;0.50;0.40;;;17.00;99.90;;;;;;5027161;28;20439;-82
2023/10/02 05:42:05;;;;;;;0.70;0.70;;;17.00;99.90;;;;;;5032726;28;20836;-82
2023/10/02 05:44:33;;;;;;;0.50;0.40;;;17.00;99.90;;;;;;5021214;28;20445;-82
2023/10/02 05:47:05;;;;;;;0.50;0.37;;;17.00;99.90;;;;;;5020584;28;20884;-82
2023/10/02 05:49:33;;;;;;;0.50;0.30;;;17.00;99.90;;;;;;5037182;28;20488;-82
2023/10/02 05:52:02;;;;;;;0.50;0.40;;;17.00;99.90;;;;;;5035098;28;20857;-82
2023/10/02 05:54:35;;;;;;;0.97;0.97;;;17.00;99.90;;;;;;5038263;28;20452;-81
2023/10/02 05:57:09;;;;;;;0.50;0.40;;;17.00;99.90;;;;;;5026889;28;20559;-81
2023/10/02 05:59:47;;;;;;;0.50;0.30;;;17.10;99.90;;;;;;5020875;28;20438;-82
2023/10/02 06:02:14;;;;;;;0.50;0.30;;;17.10;99.90;;;;;;5037860;28;20852;-82
2023/10/02 06:04:47;;;;;;;0.50;0.40;;;17.10;99.90;;;;;;5028811;28;20499;-82
2023/10/02 06:07:19;;;;;;;0.83;0.80;;;17.20;99.90;;;;;;5036739;28;20496;-80
2023/10/02 06:09:49;;;;;;;0.50;0.40;;;17.20;99.90;;;;;;5020864;28;20466;-81
2023/10/02 06:12:18;;;;;;;0.50;0.40;;;17.20;99.90;;;;;;5028299;28;20503;-82
2023/10/02 06:14:45;;;;;;;0.50;0.40;;;17.20;99.90;;;;;;5020214;28;20962;-79
2023/10/02 06:17:12;;;;;;;0.60;0.60;;;17.20;99.90;;;;;;5019923;28;20552;-82
2023/10/02 06:19:48;;;;;;;0.50;0.33;;;17.30;99.90;;;;;;5028027;28;20884;-82
2023/10/02 06:22:15;;;;;;;0.50;0.40;;;17.30;99.90;;;;;;5020529;28;20804;-82
2023/10/02 06:24:42;;;;;;;0.50;0.40;;;17.40;99.90;;;;;;5019489;28;20528;-80
2023/10/02 06:27:14;;;;;;;0.50;0.30;;;17.40;99.90;;;;;;5027036;28;20465;-82
2023/10/02 06:29:47;;;;;;;0.50;0.40;;;17.40;99.90;;;;;;5020395;28;20840;-81
2023/10/02 06:32:19;;;;;;;0.50;0.30;;;17.50;99.90;;;;;;5035972;28;20446;-80
2023/10/02 06:34:47;;;;;;;0.50;0.40;;;17.60;99.90;;;;;;5039348;28;20943;-80
2023/10/02 06:37:16;;;;;;;0.50;0.30;;;17.70;99.90;;;;;;5031842;28;20468;-81
2023/10/02 06:39:45;;;;;;;0.50;0.37;;;17.90;99.90;;;;;;5024029;28;20446;-81
2023/10/02 06:42:15;;;;;;;0.50;0.40;;;18.00;99.90;;;;;;5031618;28;20525;-81
2023/10/02 06:44:53;;;;;;;0.50;0.30;;;18.10;99.90;;;;;;5023268;28;20439;-82
2023/10/02 06:47:22;;;;;;;0.50;0.40;;;18.10;99.90;;;;;;5031199;28;20450;-79
2023/10/02 06:49:52;;;;;;;0.50;0.33;;;18.20;99.90;;;;;;5032159;28;20477;-81
2023/10/02 06:52:19;;;;;;;0.50;0.40;;;18.20;99.90;;;;;;5032089;28;20519;-81
2023/10/02 06:54:49;;;;;;;0.50;0.40;;;18.30;99.90;;;;;;5045351;28;20434;-80
2023/10/02 06:57:18;;;;;;;0.50;0.30;;;18.40;99.90;;;;;;5033907;28;20457;-81
2023/10/02 06:59:54;;;;;;;0.50;0.37;;;18.60;99.90;;;;;;5031980;28;20452;-81
2023/10/02 07:02:23;;;;;;;0.50;0.40;;;18.70;99.90;;;;;;5030607;28;20438;-80
2023/10/02 07:04:50;;;;;;;0.50;0.30;;;18.80;99.90;;;;;;5019293;28;20443;-82
2023/10/02 07:07:24;;;;;;;0.70;0.40;;;19.00;99.90;;;;;;5019487;28;20488;-81
2023/10/02 07:09:52;;;;;;;0.50;0.30;;;19.00;99.90;;;;;;5012267;28;20478;-81
2023/10/02 07:12:20;;;;;;;0.50;0.30;;;19.10;99.90;;;;;;5019587;28;20448;-81
2023/10/02 07:14:49;;;;;;;0.50;0.40;;;19.20;99.90;;;;;;5011176;28;21219;-80
2023/10/02 07:17:23;;;;;;;0.50;0.30;;;19.20;99.90;;;;;;5027415;28;20450;-81
2023/10/02 07:19:51;;;;;;;0.50;0.30;;;19.20;99.90;;;;;;5030159;28;20500;-82
2023/10/02 07:22:22;;;;;;;0.50;0.30;;;19.30;99.90;;;;;;5030340;28;20513;-81
2023/10/02 07:24:52;;;;;;;0.50;0.30;;;19.40;99.90;;;;;;5030596;28;20446;-81
2023/10/02 07:27:24;;;;;;;0.50;0.30;;;19.60;99.90;;;;;;5038051;28;20465;-80
2023/10/02 07:29:54;;;;;;;0.50;0.30;;;19.70;99.90;;;;;;5029811;28;20466;-81
2023/10/02 07:32:22;;;;;;;0.97;0.97;;;19.90;99.90;;;;;;5030940;28;20442;-81
2023/10/02 07:34:50;;;;;;;0.80;0.80;;;20.20;99.90;;;;;;5018918;28;20436;-83
2023/10/02 07:37:21;;;;;;;0.50;0.40;;;20.30;99.90;;;;;;5025969;28;21059;-82
2023/10/02 07:39:56;;;;;;;2.30;2.20;;;20.50;99.90;;;;;;5035648;28;20523;-80
2023/10/02 07:42:24;;;;;;;1.23;1.13;;;20.90;99.90;;;;;;5025899;28;20434;-82
2023/10/02 07:44:52;;;;;;;1.07;1.03;;;21.20;99.90;;;;;;5034308;28;20438;-82
2023/10/02 07:47:21;;;;;;;0.60;0.60;;;21.30;99.90;;;;;;5025740;28;21029;-81
2023/10/02 07:49:51;;;;;;;0.50;0.30;;;21.40;99.90;;;;;;5028975;28;20439;-80
2023/10/02 07:52:35;;;;;;;1.50;1.50;;;21.70;99.90;;;;;;5030110;28;20445;-81
2023/10/02 07:55:03;;;;;;;0.50;0.40;;;22.10;99.90;;;;;;5032922;28;20465;-80
2023/10/02 07:57:35;;;;;;;0.60;0.57;;;22.60;99.90;;;;;;5033662;28;20458;-81
2023/10/02 08:00:05;;;;;;;1.23;1.13;;;23.30;99.90;;;;;;5018153;28;20919;-78
2023/10/02 08:02:34;;;;;;;0.50;0.40;;;24.10;99.90;;;;;;5025816;28;20461;-80
2023/10/02 08:05:03;;;;;;;3.87;3.63;;;24.90;99.90;;;;;;5026316;28;20432;-80
2023/10/02 08:07:30;;;;;;;0.50;0.30;;;25.30;99.90;;;;;;5034959;28;20466;-81
2023/10/02 08:09:59;;;;;;;2.40;1.90;;;25.40;99.90;;;;;;5037896;28;20435;-81
2023/10/02 08:12:34;;;;;;;0.50;0.40;;;26.00;99.90;;;;;;5021436;28;20440;-80
2023/10/02 08:15:26;;;;;;;0.60;0.60;;;26.30;99.90;;;;;;5026221;28;20439;-83
2023/10/02 08:18:14;;;;;;;1.07;1.07;;;26.70;99.90;;;;;;5009603;28;20854;-81
2023/10/02 08:20:40;;;;;;;4.23;1.27;;;27.10;99.90;;;;;;5017524;28;20450;-82
2023/10/02 08:23:21;;;;;;;0.50;0.30;;;27.20;99.90;;;;;;5023607;28;20440;-82
2023/10/02 08:26:00;;;;;;;0.50;0.30;;;27.60;99.90;;;;;;5029290;28;20438;-81
2023/10/02 08:28:29;;;;;;;0.50;0.30;;;27.80;99.90;;;;;;5037842;28;20438;-81
2023/10/02 08:31:00;;;;;;;0.50;0.30;;;28.30;99.90;;;;;;5025292;28;20570;-82
2023/10/02 08:33:31;;;;;;;0.63;0.40;;;28.10;99.00;;;;;;5025240;28;20438;-81
2023/10/02 08:36:01;;;;;;;0.50;0.30;;;28.10;96.90;;;;;;5017466;28;20777;-82
2023/10/02 08:38:28;;;;;;;0.50;0.30;;;28.20;98.30;;;;;;5017369;28;20439;-81
2023/10/02 08:40:59;;;;;;;0.50;0.50;;;29.00;97.10;;;;;;5018204;28;20439;-81
2023/10/02 08:43:27;;;;;;;0.50;0.30;;;28.80;93.50;;;;;;5025166;28;20569;-81
2023/10/02 08:45:54;;;;;;;0.50;0.40;;;28.40;94.00;;;;;;5020573;28;20447;-82
2023/10/02 08:48:22;;;;;;;0.50;0.30;;;28.40;94.40;;;;;;5037068;28;20465;-81
2023/10/02 08:50:50;;;;;;;1.50;1.40;;;28.30;94.90;;;;;;5026715;28;20474;-81
2023/10/02 08:53:22;;;;;;;0.50;0.30;;;28.60;93.90;;;;;;5017769;28;20440;-80
2023/10/02 08:55:55;;;;;;;0.50;0.30;;;28.50;93.60;;;;;;5025618;28;20432;-82
2023/10/02 08:58:25;;;;;;;0.60;0.60;;;28.90;94.40;;;;;;5017817;28;20432;-81
2023/10/02 09:01:17;;;;;;;39.07;3.90;;;29.20;94.60;;;;;;5032927;28;20439;-81
2023/10/02 09:03:48;;;;;;;0.63;0.63;;;29.60;93.10;;;;;;5029041;28;20461;-81
2023/10/02 09:06:25;;;;;;;1.57;1.47;;;29.40;90.80;;;;;;5017205;28;20523;-80
2023/10/02 09:11:37;;;;;;;0.50;0.30;;;29.30;92.10;;;;;;5022914;28;20465;-82
2023/10/02 09:14:16;;;;;;;0.87;0.87;;;29.70;93.80;;;;;;5033699;28;20442;-81
2023/10/02 09:16:45;;;;;;;0.50;0.40;;;30.00;91.30;;;;;;5031327;28;20468;-81
2023/10/02 09:22:06;;;;;;;0.50;0.30;;;30.20;92.00;;;;;;5020470;28;20427;-81
2023/10/02 09:24:34;;;;;;;0.50;0.30;;;30.10;91.50;;;;;;5021126;28;20453;-82
2023/10/02 09:27:20;;;;;;;0.50;0.37;;;30.40;92.40;;;;;;5024618;28;20462;-80
2023/10/02 09:29:47;;;;;;;0.90;0.90;;;31.00;90.80;;;;;;5032523;28;20799;-82
2023/10/02 09:32:24;;;;;;;0.50;0.40;;;31.50;91.50;;;;;;5027338;28;20475;-82
2023/10/02 09:35:10;;;;;;;0.50;0.40;;;31.90;87.10;;;;;;5029161;28;20492;-82
2023/10/02 09:37:41;;;;;;;0.50;0.40;;;32.20;87.80;;;;;;5028642;28;20823;-80
2023/10/02 09:40:17;;;;;;;2.70;2.60;;;32.40;87.30;;;;;;5021158;28;20443;-82
2023/10/02 09:42:48;;;;;;;0.50;0.30;;;32.40;82.60;;;;;;5022247;28;20429;-81
2023/10/02 09:45:30;;;;;;;0.50;0.30;;;32.30;82.30;;;;;;5035183;28;20909;-81
2023/10/02 09:47:59;;;;;;;2.10;1.23;;;32.20;79.10;;;;;;5031328;28;20973;-78
2023/10/02 09:50:29;;;;;;;0.47;0.30;;;32.00;81.40;;;;;;5031997;28;20438;-81
2023/10/02 09:53:01;;;;;;;0.50;0.30;;;31.70;78.70;;;;;;5023633;28;20445;-81
2023/10/02 09:55:53;;;;;;;0.50;0.30;;;31.70;84.50;;;;;;5024667;28;20431;-82
2023/10/02 09:58:30;;;;;;;1.07;0.90;;;32.00;80.90;;;;;;5028460;28;20458;-81
2023/10/02 10:01:35;;;;;;;0.87;0.80;;;31.80;76.80;;;;;;5031701;28;20804;-80
2023/10/02 10:04:08;;;;;;;0.50;0.30;;;31.50;77.70;;;;;;5031866;28;20946;-81
2023/10/02 10:06:48;;;;;;;0.40;0.30;;;31.60;78.70;;;;;;5031044;28;20474;-81
2023/10/02 10:09:20;;;;;;;0.50;0.30;;;31.40;80.20;;;;;;5034762;28;20514;-82
2023/10/02 10:12:21;;;;;;;0.40;0.30;;;31.50;82.70;;;;;;5028981;28;20473;-81
2023/10/02 10:14:42;;;;;;;0.50;0.30;;;31.30;80.50;;;;;;5022937;28;20854;-80
2023/10/02 10:17:49;;;;;;;6.83;0.77;;;31.30;82.10;;;;;;5019106;28;20463;-82
2023/10/02 10:20:23;;;;;;;1.40;1.17;;;31.70;77.70;;;;;;5019257;28;20446;-81
2023/10/02 10:22:51;;;;;;;0.50;0.37;;;31.40;76.80;;;;;;5036158;28;20495;-82
2023/10/02 10:25:44;;;;;;;0.50;0.40;;;31.50;78.80;;;;;;5019676;28;20794;-81
2023/10/02 10:28:26;;;;;;;0.90;0.60;;;31.60;76.80;;;;;;5032084;28;20466;-81
2023/10/02 10:30:56;;;;;;;0.60;0.60;;;31.40;78.20;;;;;;5032314;28;20479;-79
2023/10/02 10:33:45;;;;;;;0.90;0.50;;;31.10;79.70;;;;;;5025110;28;20440;-80
2023/10/02 10:36:36;;;;;;;0.50;0.50;;;31.10;78.00;;;;;;5010523;28;20424;-80
2023/10/02 10:39:31;;;;;;;0.93;0.80;;;31.00;79.60;;;;;;5025372;28;20490;-79
2023/10/02 10:42:03;;;;;;;0.50;0.30;;;31.30;77.60;;;;;;5024135;28;20431;-79
2023/10/02 10:44:33;;;;;;;0.50;0.30;;;31.10;81.90;;;;;;5024589;28;20534;-79
2023/10/02 10:47:03;;;;;;;0.90;0.90;;;30.70;78.80;;;;;;5024165;28;20456;-79
2023/10/02 10:49:53;;;;;;;0.50;0.30;;;30.60;79.60;;;;;;5019852;28;20447;-79
2023/10/02 10:52:34;;;;;;;3.70;1.00;;;30.10;79.50;;;;;;5039285;28;20470;-81
2023/10/02 10:55:04;;;;;;;0.50;0.30;;;30.00;79.50;;;;;;5021584;28;20431;-80
2023/10/02 10:57:51;;;;;;;0.60;0.50;;;29.90;79.90;;;;;;5027730;28;20464;-81
2023/10/02 11:00:31;;;;;;;1.47;1.37;;;30.20;79.40;;;;;;5019435;28;20470;-81
2023/10/02 11:03:01;;;;;;;0.80;0.80;;;29.90;80.40;;;;;;5021069;28;20439;-81
2023/10/02 11:05:33;;;;;;;0.50;0.30;;;30.00;83.10;;;;;;5043889;28;20533;-80
2023/10/02 11:08:23;;;;;;;0.70;0.70;;;29.90;82.20;;;;;;5024398;28;20472;-78
2023/10/02 11:11:01;;;;;;;17.07;4.30;;;29.80;83.20;;;;;;5024210;28;20511;-79
2023/10/02 11:13:30;;;;;;;2.97;1.70;;;29.70;85.20;;;;;;5038507;28;20426;-80
2023/10/02 11:16:07;;;;;;;0.50;0.30;;;29.80;85.20;;;;;;5025134;28;20428;-78
2023/10/02 11:18:39;;;;;;;0.60;0.60;;;29.20;85.30;;;;;;5028092;28;20535;-79
2023/10/02 11:21:22;;;;;;;0.50;0.50;;;28.80;85.80;;;;;;5034856;28;20427;-78
2023/10/02 11:23:50;;;;;;;1.80;0.97;;;28.40;90.20;;;;;;5034974;28;20447;-78
2023/10/02 11:26:23;;;;;;;1.53;1.43;;;28.00;91.10;;;;;;5020738;28;20838;-78
2023/10/02 11:28:51;;;;;;;0.50;0.30;;;28.10;90.70;;;;;;5026829;28;20462;-79
2023/10/02 11:31:32;;;;;;;4.50;1.27;;;27.70;91.20;;;;;;5033221;28;20484;-80
2023/10/02 11:34:03;;;;;;;0.50;0.30;;;27.70;92.00;;;;;;5016702;28;20455;-80
2023/10/02 11:36:33;;;;;;;0.60;0.53;;;28.00;92.50;;;;;;5017512;28;20464;-79
2023/10/02 11:39:02;;;;;;;0.77;0.77;;;28.20;91.30;;;;;;5018981;28;20518;-77
2023/10/02 11:41:29;;;;;;;3.50;1.07;;;28.20;91.00;;;;;;5018268;28;20442;-78
2023/10/02 11:43:57;;;;;;;1.50;1.40;;;27.90;91.60;;;;;;5017882;28;20448;-78
2023/10/02 11:46:25;;;;;;;0.50;0.40;;;27.50;92.40;;;;;;5033629;28;20554;-81
2023/10/02 11:48:54;;;;;;;0.70;0.53;;;27.30;96.00;;;;;;5041050;28;20469;-80
2023/10/02 11:51:21;;;;;;;0.50;0.30;;;27.30;97.70;;;;;;5027174;28;20489;-81
2023/10/02 11:53:48;;;;;;;0.50;0.30;;;27.20;99.90;;;;;;5017785;28;20435;-82
2023/10/02 11:56:14;;;;;;;0.50;0.30;;;27.10;99.00;;;;;;5026196;28;20443;-80
2023/10/02 11:58:41;;;;;;;3.00;0.70;;;27.10;99.20;;;;;;5018171;28;20526;-81
2023/10/02 12:01:09;;;;;;;0.50;0.40;;;26.90;99.90;;;;;;5033992;28;20439;-81
2023/10/02 12:03:37;;;;;;;1.03;1.03;;;26.80;99.90;;;;;;5023829;28;20438;-81
2023/10/02 12:06:04;;;;;;;0.50;0.30;;;26.80;99.90;;;;;;5027303;28;20874;-78
2023/10/02 12:08:33;;;;;;;0.50;0.33;;;26.70;99.90;;;;;;5023294;28;20441;-81
2023/10/02 12:11:01;;;;;;;0.50;0.40;;;26.60;99.90;;;;;;5019438;28;20589;-80
2023/10/02 12:13:29;;;;;;;0.50;0.30;;;26.30;99.90;;;;;;5017080;28;20517;-81
2023/10/02 12:15:58;;;;;;;0.50;0.30;;;26.30;99.90;;;;;;5026293;28;20438;-81
2023/10/02 12:18:26;;;;;;;0.50;0.30;;;26.30;99.90;;;;;;5022608;28;20430;-81
2023/10/02 12:20:53;;;;;;;0.50;0.30;;;26.20;99.90;;;;;;5029372;28;20443;-79
2023/10/02 12:23:20;;;;;;;0.50;0.30;;;26.10;99.90;;;;;;5024824;28;20444;-81
2023/10/02 12:25:48;;;;;;;0.50;0.30;;;26.20;99.90;;;;;;5018024;28;20458;-80
2023/10/02 12:28:15;;;;;;;0.50;0.30;;;26.30;99.90;;;;;;5028464;28;20458;-83
2023/10/02 12:30:42;;;;;;;0.50;0.40;;;26.20;99.90;;;;;;5022201;28;20444;-81
2023/10/02 12:33:09;;;;;;;0.50;0.30;;;26.30;99.90;;;;;;5016878;28;20501;-81
2023/10/02 12:35:37;;;;;;;0.50;0.30;;;26.50;99.90;;;;;;5017183;28;20447;-81
2023/10/02 12:38:07;;;;;;;0.50;0.30;;;26.90;99.90;;;;;;5027343;28;20459;-81
2023/10/02 12:40:34;;;;;;;0.50;0.30;;;27.20;99.90;;;;;;5023028;28;20467;-81
2023/10/02 12:43:01;;;;;;;0.50;0.30;;;27.60;99.90;;;;;;5025755;28;21129;-81
2023/10/02 12:45:33;;;;;;;0.50;0.30;;;27.70;99.90;;;;;;5017122;28;20501;-81
2023/10/02 12:48:00;;;;;;;0.50;0.50;;;27.80;99.90;;;;;;5033484;28;21000;-78
2023/10/02 12:50:26;;;;;;;0.50;0.30;;;27.90;99.90;;;;;;5017654;28;20942;-81
2023/10/02 12:52:55;;;;;;;0.50;0.30;;;27.90;99.90;;;;;;5017416;28;21006;-80
2023/10/02 12:55:21;;;;;;;5.43;3.50;;;28.00;99.90;;;;;;5017407;28;20431;-81
2023/10/02 12:57:48;;;;;;;0.50;0.30;;;28.10;99.90;;;;;;5017326;28;20482;-82
2023/10/02 13:00:17;;;;;;;0.50;0.50;;;27.90;99.90;;;;;;5024428;28;20973;-81
2023/10/02 13:02:44;;;;;;;0.50;0.30;;;27.90;99.90;;;;;;5016869;28;20518;-81
2023/10/02 13:05:11;;;;;;;0.50;0.30;;;27.80;99.90;;;;;;5033044;28;20965;-79
2023/10/02 13:07:38;;;;;;;0.87;0.87;;;27.80;99.90;;;;;;5022514;28;20466;-81
2023/10/02 13:10:08;;;;;;;0.50;0.30;;;27.80;99.90;;;;;;5028544;28;20439;-81
2023/10/02 13:12:35;;;;;;;1.43;1.33;;;27.80;99.90;;;;;;5022708;28;20870;-81
2023/10/02 13:15:02;;;;;;;0.50;0.30;;;27.60;99.90;;;;;;5017386;28;20447;-80
2023/10/02 13:17:29;;;;;;;0.60;0.60;;;27.40;99.90;;;;;;5018420;28;20967;-79
2023/10/02 13:19:56;;;;;;;0.50;0.30;;;27.20;99.90;;;;;;5036278;28;20525;-79
2023/10/02 13:22:23;;;;;;;0.50;0.50;;;26.90;99.90;;;;;;5034920;28;20439;-80
2023/10/02 13:24:50;;;;;;;0.50;0.30;;;27.10;99.90;;;;;;5018503;28;20486;-81
2023/10/02 13:27:19;;;;;;;0.50;0.30;;;27.60;99.90;;;;;;5016451;28;20459;-81
2023/10/02 13:29:45;;;;;;;0.50;0.30;;;27.80;99.90;;;;;;5016447;28;20451;-80
2023/10/02 13:32:12;;;;;;;0.87;0.87;;;28.20;99.90;;;;;;5016373;28;20987;-80
2023/10/02 13:34:39;;;;;;;0.50;0.30;;;28.30;99.90;;;;;;5016678;28;20852;-81